sensor_id;sensor_type;location;lat;lon;timestamp;temperature;humidity
3684;DHT22;1858;48.716;9.648;2023-06-24T00:03:01;18.10;99.90
3684;DHT22;1858;48.716;9.648;2023-06-24T00:05:30;18.00;99.90
3684;DHT22;1858;48.716;9.648;2023-06-24T00:07:59;18.00;99.90
3684;DHT22;1858;48.716;9.648;2023-06-24T00:10:29;18.00;99.90
3684;DHT22;1858;48.716;9.648;2023-06-24T00:12:58;17.90;99.90
3684;DHT22;1858;48.716;9.648;2023-06-24T00:15:30;17.90;99.90
3684;DHT22;1858;48.716;9.648;2023-06-24T00:17:58;17.90;99.90
3684;DHT22;1858;48.716;9.648;2023-06-24T00:20:30;17.80;99.90
3684;DHT22;1858;48.716;9.648;2023-06-24T00:23:00;17.80;99.90
3684;DHT22;1858;48.716;9.648;2023-06-24T00:25:47;17.80;99.90
3684;DHT22;1858;48.716;9.648;2023-06-24T00:28:16;17.80;99.90
3684;DHT22;1858;48.716;9.648;2023-06-24T00:30:44;17.80;99.90
3684;DHT22;1858;48.716;9.648;2023-06-24T00:33:14;17.70;99.90
3684;DHT22;1858;48.716;9.648;2023-06-24T00:35:44;17.50;99.90
3684;DHT22;1858;48.716;9.648;2023-06-24T00:38:12;17.50;99.90
3684;DHT22;1858;48.716;9.648;2023-06-24T00:40:41;17.40;1.00
3684;DHT22;1858;48.716;9.648;2023-06-24T00:43:10;17.30;1.00
3684;DHT22;1858;48.716;9.648;2023-06-24T00:45:38;17.30;1.00
3684;DHT22;1858;48.716;9.648;2023-06-24T00:48:08;17.30;1.00
3684;DHT22;1858;48.716;9.648;2023-06-24T00:50:37;17.20;1.00
3684;DHT22;1858;48.716;9.648;2023-06-24T00:53:07;17.20;1.00
3684;DHT22;1858;48.716;9.648;2023-06-24T00:55:35;17.20;1.00
3684;DHT22;1858;48.716;9.648;2023-06-24T00:58:04;17.20;1.00
3684;DHT22;1858;48.716;9.648;2023-06-24T01:00:33;17.20;1.00
3684;DHT22;1858;48.716;9.648;2023-06-24T01:03:02;17.20;1.00
3684;DHT22;1858;48.716;9.648;2023-06-24T01:05:31;17.20;1.00
3684;DHT22;1858;48.716;9.648;2023-06-24T01:08:02;17.20;1.00
3684;DHT22;1858;48.716;9.648;2023-06-24T01:10:30;17.20;1.00
3684;DHT22;1858;48.716;9.648;2023-06-24T01:12:59;17.10;1.00
3684;DHT22;1858;48.716;9.648;2023-06-24T01:15:27;17.00;1.00
3684;DHT22;1858;48.716;9.648;2023-06-24T01:26:33;16.80;1.00
3684;DHT22;1858;48.716;9.648;2023-06-24T01:29:09;16.70;1.00
3684;DHT22;1858;48.716;9.648;2023-06-24T01:32:17;16.70;1.00
3684;DHT22;1858;48.716;9.648;2023-06-24T01:34:57;16.70;1.00
3684;DHT22;1858;48.716;9.648;2023-06-24T01:40:33;16.50;1.00
3684;DHT22;1858;48.716;9.648;2023-06-24T01:43:23;16.50;1.00
3684;DHT22;1858;48.716;9.648;2023-06-24T01:45:53;16.50;1.00
3684;DHT22;1858;48.716;9.648;2023-06-24T01:48:30;16.40;1.00
3684;DHT22;1858;48.716;9.648;2023-06-24T01:53:51;16.40;2.00
3684;DHT22;1858;48.716;9.648;2023-06-24T01:56:21;16.30;15.70
3684;DHT22;1858;48.716;9.648;2023-06-24T01:58:54;16.20;13.10
3684;DHT22;1858;48.716;9.648;2023-06-24T02:01:25;16.10;59.30
3684;DHT22;1858;48.716;9.648;2023-06-24T02:03:55;16.20;99.90
3684;DHT22;1858;48.716;9.648;2023-06-24T02:06:43;16.10;99.30
3684;DHT22;1858;48.716;9.648;2023-06-24T02:09:13;16.10;99.90
3684;DHT22;1858;48.716;9.648;2023-06-24T02:11:44;16.00;99.90
3684;DHT22;1858;48.716;9.648;2023-06-24T02:14:15;16.00;99.90
3684;DHT22;1858;48.716;9.648;2023-06-24T02:19:33;15.90;99.90
3684;DHT22;1858;48.716;9.648;2023-06-24T02:22:04;15.90;99.90
3684;DHT22;1858;48.716;9.648;2023-06-24T02:24:35;15.80;99.90
3684;DHT22;1858;48.716;9.648;2023-06-24T02:30:13;15.70;99.90
3684;DHT22;1858;48.716;9.648;2023-06-24T02:32:43;15.80;99.90
3684;DHT22;1858;48.716;9.648;2023-06-24T02:35:11;15.70;99.90
3684;DHT22;1858;48.716;9.648;2023-06-24T02:37:59;15.70;99.90
3684;DHT22;1858;48.716;9.648;2023-06-24T02:40:28;15.70;99.90
3684;DHT22;1858;48.716;9.648;2023-06-24T02:42:58;15.60;99.90
3684;DHT22;1858;48.716;9.648;2023-06-24T02:45:46;15.60;99.90
3684;DHT22;1858;48.716;9.648;2023-06-24T02:48:16;15.50;99.90
3684;DHT22;1858;48.716;9.648;2023-06-24T02:50:46;15.50;99.90
3684;DHT22;1858;48.716;9.648;2023-06-24T02:53:16;15.50;99.90
3684;DHT22;1858;48.716;9.648;2023-06-24T02:55:46;15.40;99.90
3684;DHT22;1858;48.716;9.648;2023-06-24T02:58:14;15.30;99.90
3684;DHT22;1858;48.716;9.648;2023-06-24T03:00:43;15.30;99.90
3684;DHT22;1858;48.716;9.648;2023-06-24T03:03:11;15.30;99.90
3684;DHT22;1858;48.716;9.648;2023-06-24T03:05:40;15.30;99.90
3684;DHT22;1858;48.716;9.648;2023-06-24T03:08:08;15.30;99.90
3684;DHT22;1858;48.716;9.648;2023-06-24T03:10:37;15.20;99.90
3684;DHT22;1858;48.716;9.648;2023-06-24T03:13:05;15.20;99.90
3684;DHT22;1858;48.716;9.648;2023-06-24T03:15:34;15.20;99.90
3684;DHT22;1858;48.716;9.648;2023-06-24T03:18:03;15.20;99.90
3684;DHT22;1858;48.716;9.648;2023-06-24T03:20:31;15.20;99.90
3684;DHT22;1858;48.716;9.648;2023-06-24T03:23:01;15.10;99.90
3684;DHT22;1858;48.716;9.648;2023-06-24T03:25:29;15.20;99.90
3684;DHT22;1858;48.716;9.648;2023-06-24T03:27:58;15.20;99.90
3684;DHT22;1858;48.716;9.648;2023-06-24T03:30:28;15.20;99.90
3684;DHT22;1858;48.716;9.648;2023-06-24T03:32:56;15.20;99.90
3684;DHT22;1858;48.716;9.648;2023-06-24T03:35:25;15.10;99.90
3684;DHT22;1858;48.716;9.648;2023-06-24T03:37:53;15.10;99.90
3684;DHT22;1858;48.716;9.648;2023-06-24T03:40:22;15.10;99.90
3684;DHT22;1858;48.716;9.648;2023-06-24T03:42:50;15.10;99.90
3684;DHT22;1858;48.716;9.648;2023-06-24T03:45:19;15.20;99.90
3684;DHT22;1858;48.716;9.648;2023-06-24T03:47:47;15.20;99.90
3684;DHT22;1858;48.716;9.648;2023-06-24T03:50:16;15.10;99.90
3684;DHT22;1858;48.716;9.648;2023-06-24T03:52:44;15.10;99.90
3684;DHT22;1858;48.716;9.648;2023-06-24T03:55:12;15.10;99.90
3684;DHT22;1858;48.716;9.648;2023-06-24T03:58:00;15.10;99.90
3684;DHT22;1858;48.716;9.648;2023-06-24T04:00:29;15.10;99.90
3684;DHT22;1858;48.716;9.648;2023-06-24T04:02:57;15.20;99.90
3684;DHT22;1858;48.716;9.648;2023-06-24T04:05:27;15.20;99.90
3684;DHT22;1858;48.716;9.648;2023-06-24T04:07:56;15.20;99.90
3684;DHT22;1858;48.716;9.648;2023-06-24T04:10:24;15.20;99.90
3684;DHT22;1858;48.716;9.648;2023-06-24T04:12:53;15.20;99.90
3684;DHT22;1858;48.716;9.648;2023-06-24T04:15:21;15.30;99.90
3684;DHT22;1858;48.716;9.648;2023-06-24T04:17:51;15.20;99.90
3684;DHT22;1858;48.716;9.648;2023-06-24T04:20:19;15.20;99.90
3684;DHT22;1858;48.716;9.648;2023-06-24T04:22:47;15.20;99.90
3684;DHT22;1858;48.716;9.648;2023-06-24T04:25:16;15.20;99.90
3684;DHT22;1858;48.716;9.648;2023-06-24T04:27:44;15.30;99.90
3684;DHT22;1858;48.716;9.648;2023-06-24T04:30:13;15.30;99.90
3684;DHT22;1858;48.716;9.648;2023-06-24T04:32:41;15.40;99.90
3684;DHT22;1858;48.716;9.648;2023-06-24T04:35:11;15.40;99.90
3684;DHT22;1858;48.716;9.648;2023-06-24T04:37:39;15.50;99.90
3684;DHT22;1858;48.716;9.648;2023-06-24T04:40:08;15.60;99.90
3684;DHT22;1858;48.716;9.648;2023-06-24T04:42:37;15.70;99.90
3684;DHT22;1858;48.716;9.648;2023-06-24T04:45:09;15.80;99.90
3684;DHT22;1858;48.716;9.648;2023-06-24T04:47:55;15.90;99.90
3684;DHT22;1858;48.716;9.648;2023-06-24T04:50:24;15.90;99.90
3684;DHT22;1858;48.716;9.648;2023-06-24T04:52:53;16.00;99.90
3684;DHT22;1858;48.716;9.648;2023-06-24T04:55:24;16.10;99.90
3684;DHT22;1858;48.716;9.648;2023-06-24T04:57:52;16.10;99.90
3684;DHT22;1858;48.716;9.648;2023-06-24T05:00:21;16.20;92.50
3684;DHT22;1858;48.716;9.648;2023-06-24T05:02:53;16.30;90.80
3684;DHT22;1858;48.716;9.648;2023-06-24T05:05:21;16.50;70.70
3684;DHT22;1858;48.716;9.648;2023-06-24T05:07:50;16.50;34.30
3684;DHT22;1858;48.716;9.648;2023-06-24T05:10:20;16.70;1.90
3684;DHT22;1858;48.716;9.648;2023-06-24T05:12:48;16.70;1.00
3684;DHT22;1858;48.716;9.648;2023-06-24T05:15:17;16.70;1.00
3684;DHT22;1858;48.716;9.648;2023-06-24T05:17:46;16.90;1.00
3684;DHT22;1858;48.716;9.648;2023-06-24T05:20:15;17.00;1.00
3684;DHT22;1858;48.716;9.648;2023-06-24T05:22:46;17.10;1.00
3684;DHT22;1858;48.716;9.648;2023-06-24T05:25:39;17.20;1.00
3684;DHT22;1858;48.716;9.648;2023-06-24T05:28:07;17.40;1.00
3684;DHT22;1858;48.716;9.648;2023-06-24T05:30:36;17.60;1.00
3684;DHT22;1858;48.716;9.648;2023-06-24T05:33:04;17.70;1.00
3684;DHT22;1858;48.716;9.648;2023-06-24T05:35:34;17.90;1.00
3684;DHT22;1858;48.716;9.648;2023-06-24T05:38:04;17.90;1.00
3684;DHT22;1858;48.716;9.648;2023-06-24T05:40:33;18.10;1.00
3684;DHT22;1858;48.716;9.648;2023-06-24T05:43:02;18.20;1.00
3684;DHT22;1858;48.716;9.648;2023-06-24T05:45:30;18.30;1.00
3684;DHT22;1858;48.716;9.648;2023-06-24T05:47:59;18.30;1.00
3684;DHT22;1858;48.716;9.648;2023-06-24T05:50:27;18.50;1.00
3684;DHT22;1858;48.716;9.648;2023-06-24T05:52:57;18.60;1.00
3684;DHT22;1858;48.716;9.648;2023-06-24T05:55:26;18.70;1.00
3684;DHT22;1858;48.716;9.648;2023-06-24T05:57:54;18.80;1.00
3684;DHT22;1858;48.716;9.648;2023-06-24T06:00:23;18.90;1.00
3684;DHT22;1858;48.716;9.648;2023-06-24T06:02:53;18.80;1.00
3684;DHT22;1858;48.716;9.648;2023-06-24T06:05:22;19.00;1.00
3684;DHT22;1858;48.716;9.648;2023-06-24T06:07:50;19.20;1.00
3684;DHT22;1858;48.716;9.648;2023-06-24T06:10:20;19.30;1.00
3684;DHT22;1858;48.716;9.648;2023-06-24T06:12:49;19.50;1.00
3684;DHT22;1858;48.716;9.648;2023-06-24T06:15:20;19.70;99.90
3684;DHT22;1858;48.716;9.648;2023-06-24T06:17:49;20.00;99.90
3684;DHT22;1858;48.716;9.648;2023-06-24T06:20:17;20.40;99.90
3684;DHT22;1858;48.716;9.648;2023-06-24T06:22:46;20.80;99.90
3684;DHT22;1858;48.716;9.648;2023-06-24T06:25:14;21.20;99.90
3684;DHT22;1858;48.716;9.648;2023-06-24T06:27:43;21.60;99.90
3684;DHT22;1858;48.716;9.648;2023-06-24T06:33:01;22.70;99.90
3684;DHT22;1858;48.716;9.648;2023-06-24T06:35:30;23.80;99.90
3684;DHT22;1858;48.716;9.648;2023-06-24T06:37:58;25.00;99.90
3684;DHT22;1858;48.716;9.648;2023-06-24T06:40:47;26.20;72.70
3684;DHT22;1858;48.716;9.648;2023-06-24T06:43:35;27.30;14.20
3684;DHT22;1858;48.716;9.648;2023-06-24T06:46:04;28.70;1.00
3684;DHT22;1858;48.716;9.648;2023-06-24T06:48:32;30.10;1.00
3684;DHT22;1858;48.716;9.648;2023-06-24T06:51:00;31.10;1.00
3684;DHT22;1858;48.716;9.648;2023-06-24T06:53:29;32.00;1.00
3684;DHT22;1858;48.716;9.648;2023-06-24T06:55:57;33.00;1.00
3684;DHT22;1858;48.716;9.648;2023-06-24T07:01:15;34.50;1.00
3684;DHT22;1858;48.716;9.648;2023-06-24T07:03:44;35.50;1.00
3684;DHT22;1858;48.716;9.648;2023-06-24T07:06:12;35.80;1.00
3684;DHT22;1858;48.716;9.648;2023-06-24T07:08:41;36.30;1.00
3684;DHT22;1858;48.716;9.648;2023-06-24T07:11:09;36.60;1.00
3684;DHT22;1858;48.716;9.648;2023-06-24T07:13:38;37.30;1.00
3684;DHT22;1858;48.716;9.648;2023-06-24T07:16:06;38.00;1.00
3684;DHT22;1858;48.716;9.648;2023-06-24T07:18:35;38.30;1.00
3684;DHT22;1858;48.716;9.648;2023-06-24T07:21:07;38.00;1.00
3684;DHT22;1858;48.716;9.648;2023-06-24T07:23:35;38.40;1.00
3684;DHT22;1858;48.716;9.648;2023-06-24T07:26:04;39.00;1.00
3684;DHT22;1858;48.716;9.648;2023-06-24T07:28:32;39.40;1.00
3684;DHT22;1858;48.716;9.648;2023-06-24T07:31:01;39.40;1.00
3684;DHT22;1858;48.716;9.648;2023-06-24T07:33:29;39.80;1.00
3684;DHT22;1858;48.716;9.648;2023-06-24T07:35:58;40.00;1.00
3684;DHT22;1858;48.716;9.648;2023-06-24T07:38:28;40.10;1.00
3684;DHT22;1858;48.716;9.648;2023-06-24T07:40:57;40.40;1.00
3684;DHT22;1858;48.716;9.648;2023-06-24T07:43:25;40.60;1.00
3684;DHT22;1858;48.716;9.648;2023-06-24T07:45:54;41.30;1.00
3684;DHT22;1858;48.716;9.648;2023-06-24T07:48:22;41.80;1.00
3684;DHT22;1858;48.716;9.648;2023-06-24T07:50:51;42.10;1.00
3684;DHT22;1858;48.716;9.648;2023-06-24T07:53:21;42.50;1.00
3684;DHT22;1858;48.716;9.648;2023-06-24T07:55:49;43.20;1.00
3684;DHT22;1858;48.716;9.648;2023-06-24T07:58:37;43.20;1.00
3684;DHT22;1858;48.716;9.648;2023-06-24T08:01:05;43.20;1.00
3684;DHT22;1858;48.716;9.648;2023-06-24T08:03:34;43.10;1.00
3684;DHT22;1858;48.716;9.648;2023-06-24T08:08:52;43.80;1.00
3684;DHT22;1858;48.716;9.648;2023-06-24T08:11:21;43.70;1.00
3684;DHT22;1858;48.716;9.648;2023-06-24T08:14:09;44.30;99.90
3684;DHT22;1858;48.716;9.648;2023-06-24T08:16:38;44.60;99.90
3684;DHT22;1858;48.716;9.648;2023-06-24T08:19:06;44.60;99.90
3684;DHT22;1858;48.716;9.648;2023-06-24T08:21:35;44.40;99.90
3684;DHT22;1858;48.716;9.648;2023-06-24T08:24:05;44.80;99.90
3684;DHT22;1858;48.716;9.648;2023-06-24T08:26:34;45.50;99.90
3684;DHT22;1858;48.716;9.648;2023-06-24T08:29:04;46.10;99.90
3684;DHT22;1858;48.716;9.648;2023-06-24T08:31:34;45.80;99.90
3684;DHT22;1858;48.716;9.648;2023-06-24T08:34:02;45.30;99.90
3684;DHT22;1858;48.716;9.648;2023-06-24T08:36:33;46.00;99.90
3684;DHT22;1858;48.716;9.648;2023-06-24T08:39:01;46.20;99.90
3684;DHT22;1858;48.716;9.648;2023-06-24T08:41:30;46.30;99.90
3684;DHT22;1858;48.716;9.648;2023-06-24T08:43:59;46.50;99.90
3684;DHT22;1858;48.716;9.648;2023-06-24T08:46:27;46.40;99.90
3684;DHT22;1858;48.716;9.648;2023-06-24T08:51:56;46.50;99.90
3684;DHT22;1858;48.716;9.648;2023-06-24T08:54:40;46.50;99.90
3684;DHT22;1858;48.716;9.648;2023-06-24T08:57:10;46.20;99.90
3684;DHT22;1858;48.716;9.648;2023-06-24T08:59:41;45.60;99.90
3684;DHT22;1858;48.716;9.648;2023-06-24T09:02:10;45.90;99.90
3684;DHT22;1858;48.716;9.648;2023-06-24T09:04:41;45.80;99.90
3684;DHT22;1858;48.716;9.648;2023-06-24T09:07:09;46.50;99.90
3684;DHT22;1858;48.716;9.648;2023-06-24T09:09:45;46.70;99.90
3684;DHT22;1858;48.716;9.648;2023-06-24T09:12:15;47.20;99.90
3684;DHT22;1858;48.716;9.648;2023-06-24T09:14:48;47.90;99.90
3684;DHT22;1858;48.716;9.648;2023-06-24T09:17:17;48.30;99.90
3684;DHT22;1858;48.716;9.648;2023-06-24T09:19:49;48.70;99.90
3684;DHT22;1858;48.716;9.648;2023-06-24T09:22:18;48.90;99.90
3684;DHT22;1858;48.716;9.648;2023-06-24T09:24:47;48.90;99.90
3684;DHT22;1858;48.716;9.648;2023-06-24T09:27:17;49.10;99.90
3684;DHT22;1858;48.716;9.648;2023-06-24T09:29:51;48.30;99.90
3684;DHT22;1858;48.716;9.648;2023-06-24T09:32:20;47.20;99.90
3684;DHT22;1858;48.716;9.648;2023-06-24T09:34:49;46.60;99.90
3684;DHT22;1858;48.716;9.648;2023-06-24T09:37:25;46.50;99.90
3684;DHT22;1858;48.716;9.648;2023-06-24T09:39:55;46.50;99.90
3684;DHT22;1858;48.716;9.648;2023-06-24T09:42:24;47.00;99.90
3684;DHT22;1858;48.716;9.648;2023-06-24T09:44:54;47.40;99.90
3684;DHT22;1858;48.716;9.648;2023-06-24T09:47:23;47.20;99.90
3684;DHT22;1858;48.716;9.648;2023-06-24T09:49:54;45.70;99.90
3684;DHT22;1858;48.716;9.648;2023-06-24T09:52:23;44.40;99.90
3684;DHT22;1858;48.716;9.648;2023-06-24T09:54:55;43.50;99.90
3684;DHT22;1858;48.716;9.648;2023-06-24T09:57:27;43.70;99.90
3684;DHT22;1858;48.716;9.648;2023-06-24T09:59:56;44.10;99.90
3684;DHT22;1858;48.716;9.648;2023-06-24T10:02:26;45.10;99.90
3684;DHT22;1858;48.716;9.648;2023-06-24T10:04:56;46.00;99.90
3684;DHT22;1858;48.716;9.648;2023-06-24T10:07:25;46.50;99.90
3684;DHT22;1858;48.716;9.648;2023-06-24T10:09:54;46.10;99.90
3684;DHT22;1858;48.716;9.648;2023-06-24T10:12:23;44.80;99.90
3684;DHT22;1858;48.716;9.648;2023-06-24T10:14:54;43.10;99.90
3684;DHT22;1858;48.716;9.648;2023-06-24T10:17:22;42.40;99.90
3684;DHT22;1858;48.716;9.648;2023-06-24T10:19:53;42.50;99.90
3684;DHT22;1858;48.716;9.648;2023-06-24T10:22:24;43.00;99.90
3684;DHT22;1858;48.716;9.648;2023-06-24T10:24:53;43.90;99.90
3684;DHT22;1858;48.716;9.648;2023-06-24T10:27:24;44.70;99.90
3684;DHT22;1858;48.716;9.648;2023-06-24T10:29:54;45.70;99.90
3684;DHT22;1858;48.716;9.648;2023-06-24T10:32:27;45.60;99.90
3684;DHT22;1858;48.716;9.648;2023-06-24T10:34:57;44.30;99.90
3684;DHT22;1858;48.716;9.648;2023-06-24T10:37:31;42.60;99.90
3684;DHT22;1858;48.716;9.648;2023-06-24T10:39:57;41.50;99.90
3684;DHT22;1858;48.716;9.648;2023-06-24T10:42:39;40.80;99.90
3684;DHT22;1858;48.716;9.648;2023-06-24T10:45:16;40.40;99.90
3684;DHT22;1858;48.716;9.648;2023-06-24T10:47:47;39.60;99.90
3684;DHT22;1858;48.716;9.648;2023-06-24T10:53:07;39.10;99.90
3684;DHT22;1858;48.716;9.648;2023-06-24T10:55:37;39.10;99.90
3684;DHT22;1858;48.716;9.648;2023-06-24T10:58:12;39.30;99.90
3684;DHT22;1858;48.716;9.648;2023-06-24T11:00:43;38.70;99.90
3684;DHT22;1858;48.716;9.648;2023-06-24T11:03:15;38.70;99.90
3684;DHT22;1858;48.716;9.648;2023-06-24T11:05:45;39.00;99.90
3684;DHT22;1858;48.716;9.648;2023-06-24T11:08:14;39.10;99.90
3684;DHT22;1858;48.716;9.648;2023-06-24T11:10:46;39.10;99.90
3684;DHT22;1858;48.716;9.648;2023-06-24T11:13:15;38.60;99.90
3684;DHT22;1858;48.716;9.648;2023-06-24T11:15:47;38.30;99.90
3684;DHT22;1858;48.716;9.648;2023-06-24T11:18:16;37.50;99.90
3684;DHT22;1858;48.716;9.648;2023-06-24T11:20:45;37.00;99.90
3684;DHT22;1858;48.716;9.648;2023-06-24T11:23:14;36.60;99.90
3684;DHT22;1858;48.716;9.648;2023-06-24T11:25:44;35.80;1.00
3684;DHT22;1858;48.716;9.648;2023-06-24T11:28:19;35.40;1.00
3684;DHT22;1858;48.716;9.648;2023-06-24T11:30:47;35.00;99.90
3684;DHT22;1858;48.716;9.648;2023-06-24T11:33:26;34.70;1.00
3684;DHT22;1858;48.716;9.648;2023-06-24T11:35:55;34.40;1.00
3684;DHT22;1858;48.716;9.648;2023-06-24T11:38:26;34.10;1.00
3684;DHT22;1858;48.716;9.648;2023-06-24T11:40:57;33.90;1.00
3684;DHT22;1858;48.716;9.648;2023-06-24T11:43:26;33.80;1.00
3684;DHT22;1858;48.716;9.648;2023-06-24T11:45:57;33.60;1.00
3684;DHT22;1858;48.716;9.648;2023-06-24T11:48:29;33.50;1.00
3684;DHT22;1858;48.716;9.648;2023-06-24T11:50:57;33.40;1.00
3684;DHT22;1858;48.716;9.648;2023-06-24T11:53:42;33.20;1.00
3684;DHT22;1858;48.716;9.648;2023-06-24T11:56:14;33.20;1.00
3684;DHT22;1858;48.716;9.648;2023-06-24T11:58:44;33.10;1.00
3684;DHT22;1858;48.716;9.648;2023-06-24T12:01:15;32.90;1.00
3684;DHT22;1858;48.716;9.648;2023-06-24T12:03:43;32.40;1.00
3684;DHT22;1858;48.716;9.648;2023-06-24T12:06:12;32.20;1.00
3684;DHT22;1858;48.716;9.648;2023-06-24T12:08:41;32.20;1.00
3684;DHT22;1858;48.716;9.648;2023-06-24T12:11:09;32.20;1.00
3684;DHT22;1858;48.716;9.648;2023-06-24T12:13:45;32.00;1.00
3684;DHT22;1858;48.716;9.648;2023-06-24T12:16:14;31.80;1.00
3684;DHT22;1858;48.716;9.648;2023-06-24T12:18:43;31.50;1.00
3684;DHT22;1858;48.716;9.648;2023-06-24T12:21:12;31.40;1.00
3684;DHT22;1858;48.716;9.648;2023-06-24T12:23:40;31.30;1.00
3684;DHT22;1858;48.716;9.648;2023-06-24T12:26:09;31.20;1.00
3684;DHT22;1858;48.716;9.648;2023-06-24T12:28:38;31.30;1.00
3684;DHT22;1858;48.716;9.648;2023-06-24T12:31:06;31.30;1.00
3684;DHT22;1858;48.716;9.648;2023-06-24T12:33:35;31.40;1.00
3684;DHT22;1858;48.716;9.648;2023-06-24T12:36:04;31.20;1.00
3684;DHT22;1858;48.716;9.648;2023-06-24T12:38:36;31.10;1.00
3684;DHT22;1858;48.716;9.648;2023-06-24T12:41:06;30.70;1.00
3684;DHT22;1858;48.716;9.648;2023-06-24T12:43:35;30.60;1.00
3684;DHT22;1858;48.716;9.648;2023-06-24T12:46:04;30.70;1.00
3684;DHT22;1858;48.716;9.648;2023-06-24T12:48:32;30.80;1.00
3684;DHT22;1858;48.716;9.648;2023-06-24T12:51:01;30.80;1.00
3684;DHT22;1858;48.716;9.648;2023-06-24T12:53:29;30.90;1.00
3684;DHT22;1858;48.716;9.648;2023-06-24T12:55:58;30.90;1.00
3684;DHT22;1858;48.716;9.648;2023-06-24T12:58:26;30.90;1.00
3684;DHT22;1858;48.716;9.648;2023-06-24T13:00:55;30.90;1.00
3684;DHT22;1858;48.716;9.648;2023-06-24T13:03:23;31.00;1.00
3684;DHT22;1858;48.716;9.648;2023-06-24T13:05:51;31.00;1.00
3684;DHT22;1858;48.716;9.648;2023-06-24T13:08:21;31.00;1.00
3684;DHT22;1858;48.716;9.648;2023-06-24T13:10:49;31.00;1.00
3684;DHT22;1858;48.716;9.648;2023-06-24T13:13:18;31.00;1.00
3684;DHT22;1858;48.716;9.648;2023-06-24T13:15:46;30.80;1.00
3684;DHT22;1858;48.716;9.648;2023-06-24T13:18:15;30.80;1.00
3684;DHT22;1858;48.716;9.648;2023-06-24T13:20:46;30.80;1.00
3684;DHT22;1858;48.716;9.648;2023-06-24T13:23:15;30.70;1.00
3684;DHT22;1858;48.716;9.648;2023-06-24T13:25:43;30.60;1.00
3684;DHT22;1858;48.716;9.648;2023-06-24T13:28:12;30.50;1.00
3684;DHT22;1858;48.716;9.648;2023-06-24T13:30:40;30.40;1.00
3684;DHT22;1858;48.716;9.648;2023-06-24T13:33:09;30.50;1.00
3684;DHT22;1858;48.716;9.648;2023-06-24T13:35:37;30.40;1.00
3684;DHT22;1858;48.716;9.648;2023-06-24T13:38:06;30.20;1.00
3684;DHT22;1858;48.716;9.648;2023-06-24T13:40:35;30.30;1.00
3684;DHT22;1858;48.716;9.648;2023-06-24T13:43:03;30.30;1.00
3684;DHT22;1858;48.716;9.648;2023-06-24T13:45:32;30.30;1.00
3684;DHT22;1858;48.716;9.648;2023-06-24T13:48:09;30.30;1.00
3684;DHT22;1858;48.716;9.648;2023-06-24T13:50:37;30.30;1.00
3684;DHT22;1858;48.716;9.648;2023-06-24T13:53:06;30.40;1.00
3684;DHT22;1858;48.716;9.648;2023-06-24T13:55:34;30.30;1.00
3684;DHT22;1858;48.716;9.648;2023-06-24T13:58:03;30.40;1.00
3684;DHT22;1858;48.716;9.648;2023-06-24T14:00:32;30.30;1.00
3684;DHT22;1858;48.716;9.648;2023-06-24T14:03:00;30.40;1.00
3684;DHT22;1858;48.716;9.648;2023-06-24T14:05:29;30.60;1.00
3684;DHT22;1858;48.716;9.648;2023-06-24T14:07:57;30.60;1.00
3684;DHT22;1858;48.716;9.648;2023-06-24T14:10:26;30.60;1.00
3684;DHT22;1858;48.716;9.648;2023-06-24T14:12:55;30.40;1.00
3684;DHT22;1858;48.716;9.648;2023-06-24T14:15:23;30.30;1.00
3684;DHT22;1858;48.716;9.648;2023-06-24T14:17:52;30.20;1.00
3684;DHT22;1858;48.716;9.648;2023-06-24T14:20:20;30.10;1.00
3684;DHT22;1858;48.716;9.648;2023-06-24T14:22:49;30.00;1.00
3684;DHT22;1858;48.716;9.648;2023-06-24T14:25:18;30.10;1.00
3684;DHT22;1858;48.716;9.648;2023-06-24T14:27:47;30.20;1.00
3684;DHT22;1858;48.716;9.648;2023-06-24T14:30:16;30.20;1.00
3684;DHT22;1858;48.716;9.648;2023-06-24T14:32:44;30.20;1.00
3684;DHT22;1858;48.716;9.648;2023-06-24T14:35:13;30.20;1.00
3684;DHT22;1858;48.716;9.648;2023-06-24T14:37:42;30.10;1.00
3684;DHT22;1858;48.716;9.648;2023-06-24T14:40:10;30.10;1.00
3684;DHT22;1858;48.716;9.648;2023-06-24T14:42:38;29.90;1.00
3684;DHT22;1858;48.716;9.648;2023-06-24T14:45:09;29.80;1.00
3684;DHT22;1858;48.716;9.648;2023-06-24T14:47:57;29.70;1.00
3684;DHT22;1858;48.716;9.648;2023-06-24T14:50:25;29.60;1.00
3684;DHT22;1858;48.716;9.648;2023-06-24T14:52:53;29.50;1.00
3684;DHT22;1858;48.716;9.648;2023-06-24T14:55:28;29.20;1.00
3684;DHT22;1858;48.716;9.648;2023-06-24T14:57:56;29.20;1.00
3684;DHT22;1858;48.716;9.648;2023-06-24T15:00:25;29.00;1.00
3684;DHT22;1858;48.716;9.648;2023-06-24T15:02:53;29.10;1.00
3684;DHT22;1858;48.716;9.648;2023-06-24T15:05:21;29.10;1.00
3684;DHT22;1858;48.716;9.648;2023-06-24T15:07:50;29.00;1.00
3684;DHT22;1858;48.716;9.648;2023-06-24T15:10:19;29.00;1.00
3684;DHT22;1858;48.716;9.648;2023-06-24T15:12:47;29.00;1.00
3684;DHT22;1858;48.716;9.648;2023-06-24T15:15:16;29.00;1.00
3684;DHT22;1858;48.716;9.648;2023-06-24T15:17:44;28.90;1.00
3684;DHT22;1858;48.716;9.648;2023-06-24T15:20:13;29.00;1.00
3684;DHT22;1858;48.716;9.648;2023-06-24T15:22:41;29.00;1.00
3684;DHT22;1858;48.716;9.648;2023-06-24T15:25:10;29.00;1.00
3684;DHT22;1858;48.716;9.648;2023-06-24T15:27:38;28.80;1.00
3684;DHT22;1858;48.716;9.648;2023-06-24T15:30:08;28.90;1.00
3684;DHT22;1858;48.716;9.648;2023-06-24T15:32:36;28.80;1.00
3684;DHT22;1858;48.716;9.648;2023-06-24T15:35:07;28.80;1.00
3684;DHT22;1858;48.716;9.648;2023-06-24T15:37:36;28.90;1.00
3684;DHT22;1858;48.716;9.648;2023-06-24T15:40:24;28.80;1.00
3684;DHT22;1858;48.716;9.648;2023-06-24T15:42:52;28.80;1.00
3684;DHT22;1858;48.716;9.648;2023-06-24T15:45:21;28.80;1.00
3684;DHT22;1858;48.716;9.648;2023-06-24T15:47:49;28.80;1.00
3684;DHT22;1858;48.716;9.648;2023-06-24T15:50:38;28.80;1.00
3684;DHT22;1858;48.716;9.648;2023-06-24T15:53:07;28.80;1.00
3684;DHT22;1858;48.716;9.648;2023-06-24T15:55:54;28.90;1.00
3684;DHT22;1858;48.716;9.648;2023-06-24T15:58:23;29.00;1.00
3684;DHT22;1858;48.716;9.648;2023-06-24T16:00:52;28.90;1.00
3684;DHT22;1858;48.716;9.648;2023-06-24T16:03:20;28.80;1.00
3684;DHT22;1858;48.716;9.648;2023-06-24T16:05:48;28.90;1.00
3684;DHT22;1858;48.716;9.648;2023-06-24T16:08:17;28.80;1.00
3684;DHT22;1858;48.716;9.648;2023-06-24T16:10:46;28.90;1.00
3684;DHT22;1858;48.716;9.648;2023-06-24T16:13:14;28.80;1.00
3684;DHT22;1858;48.716;9.648;2023-06-24T16:15:42;28.80;1.00
3684;DHT22;1858;48.716;9.648;2023-06-24T16:18:11;28.80;1.00
3684;DHT22;1858;48.716;9.648;2023-06-24T16:20:40;28.70;1.00
3684;DHT22;1858;48.716;9.648;2023-06-24T16:23:08;28.60;1.00
3684;DHT22;1858;48.716;9.648;2023-06-24T16:25:37;28.70;1.00
3684;DHT22;1858;48.716;9.648;2023-06-24T16:28:05;28.70;1.00
3684;DHT22;1858;48.716;9.648;2023-06-24T16:30:34;28.60;1.00
3684;DHT22;1858;48.716;9.648;2023-06-24T16:33:02;28.60;1.00
3684;DHT22;1858;48.716;9.648;2023-06-24T16:35:32;28.50;1.00
3684;DHT22;1858;48.716;9.648;2023-06-24T16:38:00;28.40;1.00
3684;DHT22;1858;48.716;9.648;2023-06-24T16:40:29;28.40;1.00
3684;DHT22;1858;48.716;9.648;2023-06-24T16:42:57;28.40;1.00
3684;DHT22;1858;48.716;9.648;2023-06-24T16:45:26;28.40;1.00
3684;DHT22;1858;48.716;9.648;2023-06-24T16:47:54;28.30;1.00
3684;DHT22;1858;48.716;9.648;2023-06-24T16:50:22;28.40;1.00
3684;DHT22;1858;48.716;9.648;2023-06-24T16:52:51;28.30;1.00
3684;DHT22;1858;48.716;9.648;2023-06-24T16:55:19;28.20;1.00
3684;DHT22;1858;48.716;9.648;2023-06-24T16:57:48;28.10;1.00
3684;DHT22;1858;48.716;9.648;2023-06-24T17:00:16;28.10;1.00
3684;DHT22;1858;48.716;9.648;2023-06-24T17:02:45;28.10;1.00
3684;DHT22;1858;48.716;9.648;2023-06-24T17:05:14;28.00;1.00